<?xml version="1.0" encoding="UTF-8" standalone="no" ?>
<gpx xmlns="http://www.topografix.com/GPX/1/1" xmlns:xsi="http://www.w3.org/2001/XMLSchema-instance" xsi:schemaLocation="http://www.topografix.com/GPX/1/1 http://www.topografix.com/GPX/1/1/gpx.xsd" version="1.1" creator="VisuGPX - https://www.visugpx.com">
  <metadata>
    <name>25/09/2015 - Circuit Laurette</name>
    <desc><![CDATA[25/09/2015 - Circuit Laurette]]></desc>
  </metadata>
  <trk>
    <name><![CDATA[Tracé actuel: 25 SEPT 2015 14:34]]></name>
    <trkseg>
      <trkpt lat="50.40226" lon="2.71378">
        <ele>143.37</ele>
        <time>2015-09-25T12:34:56Z</time>
      </trkpt>
      <trkpt lat="50.40226" lon="2.71378">
        <ele>143.37</ele>
        <time>2015-09-25T12:34:57Z</time>
      </trkpt>
      <trkpt lat="50.40131" lon="2.71395">
        <ele>143.85</ele>
        <time>2015-09-25T12:35:26Z</time>
      </trkpt>
      <trkpt lat="50.40129" lon="2.71387">
        <ele>144.82</ele>
        <time>2015-09-25T12:35:59Z</time>
      </trkpt>
      <trkpt lat="50.40116" lon="2.71382">
        <ele>145.3</ele>
        <time>2015-09-25T12:36:11Z</time>
      </trkpt>
      <trkpt lat="50.40096" lon="2.71377">
        <ele>144.34</ele>
        <time>2015-09-25T12:36:28Z</time>
      </trkpt>
      <trkpt lat="50.40075" lon="2.71375">
        <ele>144.34</ele>
        <time>2015-09-25T12:36:43Z</time>
      </trkpt>
      <trkpt lat="50.40055" lon="2.71376">
        <ele>143.37</ele>
        <time>2015-09-25T12:36:57Z</time>
      </trkpt>
      <trkpt lat="50.40026" lon="2.71376">
        <ele>142.41</ele>
        <time>2015-09-25T12:37:18Z</time>
      </trkpt>
      <trkpt lat="50.40025" lon="2.71375">
        <ele>142.41</ele>
        <time>2015-09-25T12:37:19Z</time>
      </trkpt>
      <trkpt lat="50.40024" lon="2.7136">
        <ele>142.89</ele>
        <time>2015-09-25T12:37:26Z</time>
      </trkpt>
      <trkpt lat="50.40028" lon="2.71337">
        <ele>142.41</ele>
        <time>2015-09-25T12:37:39Z</time>
      </trkpt>
      <trkpt lat="50.40035" lon="2.71322">
        <ele>142.89</ele>
        <time>2015-09-25T12:37:50Z</time>
      </trkpt>
      <trkpt lat="50.40042" lon="2.71307">
        <ele>142.41</ele>
        <time>2015-09-25T12:38:03Z</time>
      </trkpt>
      <trkpt lat="50.40048" lon="2.71283">
        <ele>142.89</ele>
        <time>2015-09-25T12:38:16Z</time>
      </trkpt>
      <trkpt lat="50.4005" lon="2.71276">
        <ele>142.89</ele>
        <time>2015-09-25T12:38:19Z</time>
      </trkpt>
      <trkpt lat="50.4005" lon="2.71257">
        <ele>142.89</ele>
        <time>2015-09-25T12:38:26Z</time>
      </trkpt>
      <trkpt lat="50.40052" lon="2.71249">
        <ele>143.85</ele>
        <time>2015-09-25T12:38:29Z</time>
      </trkpt>
      <trkpt lat="50.40059" lon="2.71213">
        <ele>144.34</ele>
        <time>2015-09-25T12:38:45Z</time>
      </trkpt>
      <trkpt lat="50.40071" lon="2.71182">
        <ele>144.82</ele>
        <time>2015-09-25T12:39:00Z</time>
      </trkpt>
      <trkpt lat="50.40075" lon="2.71169">
        <ele>144.82</ele>
        <time>2015-09-25T12:39:06Z</time>
      </trkpt>
      <trkpt lat="50.40088" lon="2.7114">
        <ele>144.82</ele>
        <time>2015-09-25T12:39:23Z</time>
      </trkpt>
      <trkpt lat="50.40104" lon="2.711">
        <ele>145.78</ele>
        <time>2015-09-25T12:39:44Z</time>
      </trkpt>
      <trkpt lat="50.40117" lon="2.71073">
        <ele>146.74</ele>
        <time>2015-09-25T12:40:00Z</time>
      </trkpt>
      <trkpt lat="50.40121" lon="2.71068">
        <ele>146.74</ele>
        <time>2015-09-25T12:40:04Z</time>
      </trkpt>
      <trkpt lat="50.40133" lon="2.71049">
        <ele>146.74</ele>
        <time>2015-09-25T12:40:17Z</time>
      </trkpt>
      <trkpt lat="50.40139" lon="2.71042">
        <ele>147.22</ele>
        <time>2015-09-25T12:40:23Z</time>
      </trkpt>
      <trkpt lat="50.40152" lon="2.71018">
        <ele>147.7</ele>
        <time>2015-09-25T12:40:37Z</time>
      </trkpt>
      <trkpt lat="50.40154" lon="2.71004">
        <ele>147.7</ele>
        <time>2015-09-25T12:40:45Z</time>
      </trkpt>
      <trkpt lat="50.40158" lon="2.70995">
        <ele>148.18</ele>
        <time>2015-09-25T12:40:49Z</time>
      </trkpt>
      <trkpt lat="50.40174" lon="2.70955">
        <ele>148.66</ele>
        <time>2015-09-25T12:41:05Z</time>
      </trkpt>
      <trkpt lat="50.40183" lon="2.70919">
        <ele>150.1</ele>
        <time>2015-09-25T12:41:21Z</time>
      </trkpt>
      <trkpt lat="50.40185" lon="2.70907">
        <ele>149.14</ele>
        <time>2015-09-25T12:41:28Z</time>
      </trkpt>
      <trkpt lat="50.40196" lon="2.70889">
        <ele>150.58</ele>
        <time>2015-09-25T12:41:40Z</time>
      </trkpt>
      <trkpt lat="50.40209" lon="2.70862">
        <ele>150.58</ele>
        <time>2015-09-25T12:41:54Z</time>
      </trkpt>
      <trkpt lat="50.4022" lon="2.70835">
        <ele>151.06</ele>
        <time>2015-09-25T12:42:08Z</time>
      </trkpt>
      <trkpt lat="50.4022" lon="2.70833">
        <ele>151.06</ele>
        <time>2015-09-25T12:42:09Z</time>
      </trkpt>
      <trkpt lat="50.40227" lon="2.70812">
        <ele>151.54</ele>
        <time>2015-09-25T12:42:18Z</time>
      </trkpt>
      <trkpt lat="50.40236" lon="2.70769">
        <ele>152.03</ele>
        <time>2015-09-25T12:42:35Z</time>
      </trkpt>
      <trkpt lat="50.4024" lon="2.70752">
        <ele>152.03</ele>
        <time>2015-09-25T12:42:44Z</time>
      </trkpt>
      <trkpt lat="50.40247" lon="2.70721">
        <ele>152.51</ele>
        <time>2015-09-25T12:43:01Z</time>
      </trkpt>
      <trkpt lat="50.4025" lon="2.70714">
        <ele>151.54</ele>
        <time>2015-09-25T12:43:05Z</time>
      </trkpt>
      <trkpt lat="50.40261" lon="2.70676">
        <ele>151.54</ele>
        <time>2015-09-25T12:43:24Z</time>
      </trkpt>
      <trkpt lat="50.40264" lon="2.7066">
        <ele>151.54</ele>
        <time>2015-09-25T12:43:32Z</time>
      </trkpt>
      <trkpt lat="50.40268" lon="2.70631">
        <ele>151.54</ele>
        <time>2015-09-25T12:43:48Z</time>
      </trkpt>
      <trkpt lat="50.40272" lon="2.7062">
        <ele>152.03</ele>
        <time>2015-09-25T12:43:53Z</time>
      </trkpt>
      <trkpt lat="50.40294" lon="2.70606">
        <ele>152.99</ele>
        <time>2015-09-25T12:44:09Z</time>
      </trkpt>
      <trkpt lat="50.40312" lon="2.70609">
        <ele>153.95</ele>
        <time>2015-09-25T12:44:23Z</time>
      </trkpt>
      <trkpt lat="50.4034" lon="2.70619">
        <ele>154.91</ele>
        <time>2015-09-25T12:44:41Z</time>
      </trkpt>
      <trkpt lat="50.40363" lon="2.70627">
        <ele>156.35</ele>
        <time>2015-09-25T12:44:57Z</time>
      </trkpt>
      <trkpt lat="50.40394" lon="2.70637">
        <ele>156.35</ele>
        <time>2015-09-25T12:45:17Z</time>
      </trkpt>
      <trkpt lat="50.40417" lon="2.70647">
        <ele>156.83</ele>
        <time>2015-09-25T12:45:33Z</time>
      </trkpt>
      <trkpt lat="50.40431" lon="2.70651">
        <ele>156.83</ele>
        <time>2015-09-25T12:45:43Z</time>
      </trkpt>
      <trkpt lat="50.4044" lon="2.70654">
        <ele>155.87</ele>
        <time>2015-09-25T12:45:51Z</time>
      </trkpt>
      <trkpt lat="50.40441" lon="2.70653">
        <ele>155.39</ele>
        <time>2015-09-25T12:46:04Z</time>
      </trkpt>
      <trkpt lat="50.40444" lon="2.70655">
        <ele>155.87</ele>
        <time>2015-09-25T12:46:18Z</time>
      </trkpt>
      <trkpt lat="50.40446" lon="2.70653">
        <ele>155.87</ele>
        <time>2015-09-25T12:46:32Z</time>
      </trkpt>
      <trkpt lat="50.40447" lon="2.70652">
        <ele>155.39</ele>
        <time>2015-09-25T12:46:35Z</time>
      </trkpt>
      <trkpt lat="50.40445" lon="2.70651">
        <ele>155.39</ele>
        <time>2015-09-25T12:46:52Z</time>
      </trkpt>
      <trkpt lat="50.40446" lon="2.70651">
        <ele>155.87</ele>
        <time>2015-09-25T12:47:02Z</time>
      </trkpt>
      <trkpt lat="50.40447" lon="2.70657">
        <ele>155.87</ele>
        <time>2015-09-25T12:47:11Z</time>
      </trkpt>
      <trkpt lat="50.40447" lon="2.70655">
        <ele>156.35</ele>
        <time>2015-09-25T12:47:31Z</time>
      </trkpt>
      <trkpt lat="50.40447" lon="2.70656">
        <ele>156.35</ele>
        <time>2015-09-25T12:47:56Z</time>
      </trkpt>
      <trkpt lat="50.40447" lon="2.70656">
        <ele>156.83</ele>
        <time>2015-09-25T12:48:24Z</time>
      </trkpt>
      <trkpt lat="50.40449" lon="2.70654">
        <ele>157.31</ele>
        <time>2015-09-25T12:48:55Z</time>
      </trkpt>
      <trkpt lat="50.40445" lon="2.70655">
        <ele>157.79</ele>
        <time>2015-09-25T12:49:24Z</time>
      </trkpt>
      <trkpt lat="50.40443" lon="2.70654">
        <ele>157.79</ele>
        <time>2015-09-25T12:49:49Z</time>
      </trkpt>
      <trkpt lat="50.40444" lon="2.70654">
        <ele>159.24</ele>
        <time>2015-09-25T12:50:05Z</time>
      </trkpt>
      <trkpt lat="50.40445" lon="2.70657">
        <ele>159.24</ele>
        <time>2015-09-25T12:50:07Z</time>
      </trkpt>
      <trkpt lat="50.4045" lon="2.70666">
        <ele>157.79</ele>
        <time>2015-09-25T12:50:17Z</time>
      </trkpt>
      <trkpt lat="50.4046" lon="2.70692">
        <ele>155.87</ele>
        <time>2015-09-25T12:50:34Z</time>
      </trkpt>
      <trkpt lat="50.40472" lon="2.70723">
        <ele>152.99</ele>
        <time>2015-09-25T12:50:54Z</time>
      </trkpt>
      <trkpt lat="50.40472" lon="2.70725">
        <ele>152.51</ele>
        <time>2015-09-25T12:50:55Z</time>
      </trkpt>
      <trkpt lat="50.40472" lon="2.70729">
        <ele>152.51</ele>
        <time>2015-09-25T12:50:57Z</time>
      </trkpt>
      <trkpt lat="50.40478" lon="2.70748">
        <ele>150.1</ele>
        <time>2015-09-25T12:51:07Z</time>
      </trkpt>
      <trkpt lat="50.40482" lon="2.70773">
        <ele>147.22</ele>
        <time>2015-09-25T12:51:21Z</time>
      </trkpt>
      <trkpt lat="50.40485" lon="2.70806">
        <ele>144.34</ele>
        <time>2015-09-25T12:51:35Z</time>
      </trkpt>
      <trkpt lat="50.40487" lon="2.70844">
        <ele>141.93</ele>
        <time>2015-09-25T12:51:50Z</time>
      </trkpt>
      <trkpt lat="50.40488" lon="2.70846">
        <ele>141.93</ele>
        <time>2015-09-25T12:51:51Z</time>
      </trkpt>
      <trkpt lat="50.40489" lon="2.70855">
        <ele>140.97</ele>
        <time>2015-09-25T12:51:55Z</time>
      </trkpt>
      <trkpt lat="50.4049" lon="2.70861">
        <ele>140.49</ele>
        <time>2015-09-25T12:51:58Z</time>
      </trkpt>
      <trkpt lat="50.40496" lon="2.70876">
        <ele>137.61</ele>
        <time>2015-09-25T12:52:07Z</time>
      </trkpt>
      <trkpt lat="50.405" lon="2.70884">
        <ele>136.16</ele>
        <time>2015-09-25T12:52:12Z</time>
      </trkpt>
      <trkpt lat="50.40516" lon="2.70905">
        <ele>132.32</ele>
        <time>2015-09-25T12:52:27Z</time>
      </trkpt>
      <trkpt lat="50.40521" lon="2.70913">
        <ele>130.88</ele>
        <time>2015-09-25T12:52:32Z</time>
      </trkpt>
      <trkpt lat="50.40532" lon="2.70932">
        <ele>127.51</ele>
        <time>2015-09-25T12:52:44Z</time>
      </trkpt>
      <trkpt lat="50.40532" lon="2.70928">
        <ele>128.95</ele>
        <time>2015-09-25T12:52:57Z</time>
      </trkpt>
      <trkpt lat="50.40535" lon="2.70924">
        <ele>129.43</ele>
        <time>2015-09-25T12:53:12Z</time>
      </trkpt>
      <trkpt lat="50.40537" lon="2.70925">
        <ele>129.92</ele>
        <time>2015-09-25T12:53:27Z</time>
      </trkpt>
      <trkpt lat="50.40536" lon="2.70925">
        <ele>128.47</ele>
        <time>2015-09-25T12:53:44Z</time>
      </trkpt>
      <trkpt lat="50.40536" lon="2.70926">
        <ele>129.92</ele>
        <time>2015-09-25T12:53:50Z</time>
      </trkpt>
      <trkpt lat="50.40538" lon="2.70926">
        <ele>130.4</ele>
        <time>2015-09-25T12:54:17Z</time>
      </trkpt>
      <trkpt lat="50.4054" lon="2.70924">
        <ele>130.4</ele>
        <time>2015-09-25T12:54:40Z</time>
      </trkpt>
      <trkpt lat="50.40536" lon="2.70925">
        <ele>130.4</ele>
        <time>2015-09-25T12:54:57Z</time>
      </trkpt>
      <trkpt lat="50.40538" lon="2.70925">
        <ele>130.88</ele>
        <time>2015-09-25T12:55:17Z</time>
      </trkpt>
      <trkpt lat="50.40544" lon="2.70922">
        <ele>129.43</ele>
        <time>2015-09-25T12:55:31Z</time>
      </trkpt>
      <trkpt lat="50.40542" lon="2.70923">
        <ele>129.43</ele>
        <time>2015-09-25T12:55:47Z</time>
      </trkpt>
      <trkpt lat="50.40541" lon="2.70924">
        <ele>130.88</ele>
        <time>2015-09-25T12:55:50Z</time>
      </trkpt>
      <trkpt lat="50.40542" lon="2.70927">
        <ele>130.88</ele>
        <time>2015-09-25T12:56:06Z</time>
      </trkpt>
      <trkpt lat="50.40539" lon="2.70927">
        <ele>131.84</ele>
        <time>2015-09-25T12:56:23Z</time>
      </trkpt>
      <trkpt lat="50.4054" lon="2.7093">
        <ele>131.84</ele>
        <time>2015-09-25T12:56:39Z</time>
      </trkpt>
      <trkpt lat="50.40538" lon="2.70935">
        <ele>131.84</ele>
        <time>2015-09-25T12:56:55Z</time>
      </trkpt>
      <trkpt lat="50.40538" lon="2.70925">
        <ele>132.32</ele>
        <time>2015-09-25T12:57:22Z</time>
      </trkpt>
      <trkpt lat="50.40542" lon="2.7093">
        <ele>132.8</ele>
        <time>2015-09-25T12:57:47Z</time>
      </trkpt>
      <trkpt lat="50.40541" lon="2.70939">
        <ele>131.84</ele>
        <time>2015-09-25T12:58:01Z</time>
      </trkpt>
      <trkpt lat="50.40545" lon="2.70942">
        <ele>130.4</ele>
        <time>2015-09-25T12:58:18Z</time>
      </trkpt>
      <trkpt lat="50.4055" lon="2.70947">
        <ele>129.92</ele>
        <time>2015-09-25T12:58:33Z</time>
      </trkpt>
      <trkpt lat="50.40551" lon="2.70955">
        <ele>128.95</ele>
        <time>2015-09-25T12:58:52Z</time>
      </trkpt>
      <trkpt lat="50.40553" lon="2.70958">
        <ele>128.47</ele>
        <time>2015-09-25T12:58:54Z</time>
      </trkpt>
      <trkpt lat="50.40556" lon="2.70974">
        <ele>127.51</ele>
        <time>2015-09-25T12:59:02Z</time>
      </trkpt>
      <trkpt lat="50.4057" lon="2.71004">
        <ele>124.63</ele>
        <time>2015-09-25T12:59:20Z</time>
      </trkpt>
      <trkpt lat="50.40581" lon="2.71026">
        <ele>122.22</ele>
        <time>2015-09-25T12:59:36Z</time>
      </trkpt>
      <trkpt lat="50.40593" lon="2.71046">
        <ele>121.26</ele>
        <time>2015-09-25T12:59:49Z</time>
      </trkpt>
      <trkpt lat="50.40615" lon="2.71069">
        <ele>119.82</ele>
        <time>2015-09-25T13:00:05Z</time>
      </trkpt>
      <trkpt lat="50.40637" lon="2.71101">
        <ele>118.86</ele>
        <time>2015-09-25T13:00:25Z</time>
      </trkpt>
      <trkpt lat="50.40656" lon="2.71129">
        <ele>117.42</ele>
        <time>2015-09-25T13:00:44Z</time>
      </trkpt>
      <trkpt lat="50.40673" lon="2.71156">
        <ele>115.98</ele>
        <time>2015-09-25T13:01:02Z</time>
      </trkpt>
      <trkpt lat="50.40686" lon="2.71177">
        <ele>115.01</ele>
        <time>2015-09-25T13:01:18Z</time>
      </trkpt>
      <trkpt lat="50.40687" lon="2.71174">
        <ele>114.05</ele>
        <time>2015-09-25T13:01:28Z</time>
      </trkpt>
      <trkpt lat="50.40687" lon="2.71174">
        <ele>114.05</ele>
        <time>2015-09-25T13:01:47Z</time>
      </trkpt>
      <trkpt lat="50.40688" lon="2.71174">
        <ele>114.53</ele>
        <time>2015-09-25T13:02:18Z</time>
      </trkpt>
      <trkpt lat="50.40686" lon="2.71174">
        <ele>115.01</ele>
        <time>2015-09-25T13:02:51Z</time>
      </trkpt>
      <trkpt lat="50.40688" lon="2.71174">
        <ele>115.01</ele>
        <time>2015-09-25T13:03:08Z</time>
      </trkpt>
      <trkpt lat="50.40687" lon="2.71174">
        <ele>115.01</ele>
        <time>2015-09-25T13:03:14Z</time>
      </trkpt>
      <trkpt lat="50.40693" lon="2.71188">
        <ele>115.01</ele>
        <time>2015-09-25T13:03:27Z</time>
      </trkpt>
      <trkpt lat="50.40697" lon="2.71194">
        <ele>114.53</ele>
        <time>2015-09-25T13:03:38Z</time>
      </trkpt>
      <trkpt lat="50.40714" lon="2.71219">
        <ele>114.05</ele>
        <time>2015-09-25T13:03:54Z</time>
      </trkpt>
      <trkpt lat="50.40723" lon="2.71232">
        <ele>112.61</ele>
        <time>2015-09-25T13:04:10Z</time>
      </trkpt>
      <trkpt lat="50.40739" lon="2.71254">
        <ele>111.17</ele>
        <time>2015-09-25T13:04:24Z</time>
      </trkpt>
      <trkpt lat="50.40754" lon="2.71277">
        <ele>109.73</ele>
        <time>2015-09-25T13:04:38Z</time>
      </trkpt>
      <trkpt lat="50.40776" lon="2.71303">
        <ele>107.81</ele>
        <time>2015-09-25T13:04:57Z</time>
      </trkpt>
      <trkpt lat="50.40798" lon="2.71327">
        <ele>105.88</ele>
        <time>2015-09-25T13:05:15Z</time>
      </trkpt>
      <trkpt lat="50.4082" lon="2.71351">
        <ele>104.92</ele>
        <time>2015-09-25T13:05:34Z</time>
      </trkpt>
      <trkpt lat="50.40848" lon="2.71376">
        <ele>100.6</ele>
        <time>2015-09-25T13:05:56Z</time>
      </trkpt>
      <trkpt lat="50.4085" lon="2.71377">
        <ele>105.88</ele>
        <time>2015-09-25T13:05:57Z</time>
      </trkpt>
      <trkpt lat="50.40868" lon="2.71388">
        <ele>102.52</ele>
        <time>2015-09-25T13:06:10Z</time>
      </trkpt>
      <trkpt lat="50.40895" lon="2.71405">
        <ele>102.52</ele>
        <time>2015-09-25T13:06:30Z</time>
      </trkpt>
      <trkpt lat="50.40896" lon="2.71404">
        <ele>102.52</ele>
        <time>2015-09-25T13:06:31Z</time>
      </trkpt>
      <trkpt lat="50.40919" lon="2.71414">
        <ele>102.52</ele>
        <time>2015-09-25T13:06:47Z</time>
      </trkpt>
      <trkpt lat="50.4093" lon="2.71419">
        <ele>102.52</ele>
        <time>2015-09-25T13:07:00Z</time>
      </trkpt>
      <trkpt lat="50.40951" lon="2.7143">
        <ele>103</ele>
        <time>2015-09-25T13:07:16Z</time>
      </trkpt>
      <trkpt lat="50.40974" lon="2.71439">
        <ele>102.52</ele>
        <time>2015-09-25T13:07:32Z</time>
      </trkpt>
      <trkpt lat="50.40985" lon="2.71434">
        <ele>102.52</ele>
        <time>2015-09-25T13:07:41Z</time>
      </trkpt>
      <trkpt lat="50.40988" lon="2.71399">
        <ele>102.52</ele>
        <time>2015-09-25T13:07:58Z</time>
      </trkpt>
      <trkpt lat="50.40994" lon="2.71363">
        <ele>102.04</ele>
        <time>2015-09-25T13:08:14Z</time>
      </trkpt>
      <trkpt lat="50.41007" lon="2.71321">
        <ele>101.56</ele>
        <time>2015-09-25T13:08:35Z</time>
      </trkpt>
      <trkpt lat="50.41021" lon="2.71287">
        <ele>102.04</ele>
        <time>2015-09-25T13:08:53Z</time>
      </trkpt>
      <trkpt lat="50.41036" lon="2.71251">
        <ele>102.04</ele>
        <time>2015-09-25T13:09:13Z</time>
      </trkpt>
      <trkpt lat="50.41049" lon="2.7121">
        <ele>101.56</ele>
        <time>2015-09-25T13:09:33Z</time>
      </trkpt>
      <trkpt lat="50.41062" lon="2.71171">
        <ele>102.04</ele>
        <time>2015-09-25T13:09:52Z</time>
      </trkpt>
      <trkpt lat="50.41072" lon="2.71172">
        <ele>102.04</ele>
        <time>2015-09-25T13:09:59Z</time>
      </trkpt>
      <trkpt lat="50.41083" lon="2.71174">
        <ele>101.08</ele>
        <time>2015-09-25T13:10:16Z</time>
      </trkpt>
      <trkpt lat="50.41107" lon="2.71178">
        <ele>100.6</ele>
        <time>2015-09-25T13:10:35Z</time>
      </trkpt>
      <trkpt lat="50.41119" lon="2.7118">
        <ele>101.08</ele>
        <time>2015-09-25T13:10:51Z</time>
      </trkpt>
      <trkpt lat="50.41134" lon="2.7118">
        <ele>100.11</ele>
        <time>2015-09-25T13:11:03Z</time>
      </trkpt>
      <trkpt lat="50.41151" lon="2.71183">
        <ele>100.11</ele>
        <time>2015-09-25T13:11:23Z</time>
      </trkpt>
      <trkpt lat="50.41152" lon="2.71182">
        <ele>100.11</ele>
        <time>2015-09-25T13:11:26Z</time>
      </trkpt>
      <trkpt lat="50.41151" lon="2.71182">
        <ele>100.11</ele>
        <time>2015-09-25T13:11:39Z</time>
      </trkpt>
      <trkpt lat="50.4115" lon="2.71184">
        <ele>99.63</ele>
        <time>2015-09-25T13:11:59Z</time>
      </trkpt>
      <trkpt lat="50.41151" lon="2.71185">
        <ele>99.63</ele>
        <time>2015-09-25T13:12:25Z</time>
      </trkpt>
      <trkpt lat="50.41153" lon="2.71179">
        <ele>99.63</ele>
        <time>2015-09-25T13:12:51Z</time>
      </trkpt>
      <trkpt lat="50.41156" lon="2.71181">
        <ele>99.63</ele>
        <time>2015-09-25T13:13:14Z</time>
      </trkpt>
      <trkpt lat="50.41158" lon="2.71181">
        <ele>99.63</ele>
        <time>2015-09-25T13:13:16Z</time>
      </trkpt>
      <trkpt lat="50.41164" lon="2.7118">
        <ele>100.11</ele>
        <time>2015-09-25T13:13:25Z</time>
      </trkpt>
      <trkpt lat="50.41159" lon="2.7118">
        <ele>100.11</ele>
        <time>2015-09-25T13:13:32Z</time>
      </trkpt>
      <trkpt lat="50.41152" lon="2.71184">
        <ele>100.11</ele>
        <time>2015-09-25T13:13:45Z</time>
      </trkpt>
      <trkpt lat="50.41151" lon="2.71183">
        <ele>100.11</ele>
        <time>2015-09-25T13:13:57Z</time>
      </trkpt>
      <trkpt lat="50.4115" lon="2.71184">
        <ele>100.11</ele>
        <time>2015-09-25T13:14:16Z</time>
      </trkpt>
      <trkpt lat="50.41141" lon="2.71181">
        <ele>101.08</ele>
        <time>2015-09-25T13:14:23Z</time>
      </trkpt>
      <trkpt lat="50.41138" lon="2.71182">
        <ele>101.56</ele>
        <time>2015-09-25T13:14:25Z</time>
      </trkpt>
      <trkpt lat="50.41115" lon="2.71178">
        <ele>102.04</ele>
        <time>2015-09-25T13:14:42Z</time>
      </trkpt>
      <trkpt lat="50.41092" lon="2.71174">
        <ele>102.52</ele>
        <time>2015-09-25T13:14:58Z</time>
      </trkpt>
      <trkpt lat="50.41073" lon="2.71171">
        <ele>103.48</ele>
        <time>2015-09-25T13:15:12Z</time>
      </trkpt>
      <trkpt lat="50.41064" lon="2.7117">
        <ele>103.96</ele>
        <time>2015-09-25T13:15:18Z</time>
      </trkpt>
      <trkpt lat="50.41059" lon="2.71182">
        <ele>104.44</ele>
        <time>2015-09-25T13:15:24Z</time>
      </trkpt>
      <trkpt lat="50.41048" lon="2.71216">
        <ele>104.44</ele>
        <time>2015-09-25T13:15:41Z</time>
      </trkpt>
      <trkpt lat="50.41034" lon="2.7126">
        <ele>104.44</ele>
        <time>2015-09-25T13:16:02Z</time>
      </trkpt>
      <trkpt lat="50.41018" lon="2.71293">
        <ele>104.44</ele>
        <time>2015-09-25T13:16:20Z</time>
      </trkpt>
      <trkpt lat="50.41006" lon="2.71321">
        <ele>104.92</ele>
        <time>2015-09-25T13:16:34Z</time>
      </trkpt>
      <trkpt lat="50.40998" lon="2.71351">
        <ele>104.92</ele>
        <time>2015-09-25T13:16:48Z</time>
      </trkpt>
      <trkpt lat="50.40994" lon="2.71367">
        <ele>104.92</ele>
        <time>2015-09-25T13:16:55Z</time>
      </trkpt>
      <trkpt lat="50.40989" lon="2.71398">
        <ele>104.92</ele>
        <time>2015-09-25T13:17:08Z</time>
      </trkpt>
      <trkpt lat="50.40987" lon="2.71413">
        <ele>104.92</ele>
        <time>2015-09-25T13:17:14Z</time>
      </trkpt>
      <trkpt lat="50.40985" lon="2.71421">
        <ele>104.92</ele>
        <time>2015-09-25T13:17:18Z</time>
      </trkpt>
      <trkpt lat="50.40985" lon="2.71431">
        <ele>106.36</ele>
        <time>2015-09-25T13:17:22Z</time>
      </trkpt>
      <trkpt lat="50.40986" lon="2.71442">
        <ele>106.36</ele>
        <time>2015-09-25T13:17:27Z</time>
      </trkpt>
      <trkpt lat="50.40991" lon="2.71448">
        <ele>106.36</ele>
        <time>2015-09-25T13:17:31Z</time>
      </trkpt>
      <trkpt lat="50.41011" lon="2.71457">
        <ele>106.84</ele>
        <time>2015-09-25T13:17:45Z</time>
      </trkpt>
      <trkpt lat="50.41039" lon="2.71465">
        <ele>106.84</ele>
        <time>2015-09-25T13:18:03Z</time>
      </trkpt>
      <trkpt lat="50.41056" lon="2.71477">
        <ele>106.84</ele>
        <time>2015-09-25T13:18:16Z</time>
      </trkpt>
      <trkpt lat="50.41073" lon="2.71491">
        <ele>107.81</ele>
        <time>2015-09-25T13:18:30Z</time>
      </trkpt>
      <trkpt lat="50.41082" lon="2.71521">
        <ele>108.77</ele>
        <time>2015-09-25T13:18:45Z</time>
      </trkpt>
      <trkpt lat="50.41091" lon="2.71547">
        <ele>108.77</ele>
        <time>2015-09-25T13:18:58Z</time>
      </trkpt>
      <trkpt lat="50.41097" lon="2.71574">
        <ele>108.77</ele>
        <time>2015-09-25T13:19:10Z</time>
      </trkpt>
      <trkpt lat="50.41112" lon="2.71608">
        <ele>107.32</ele>
        <time>2015-09-25T13:19:28Z</time>
      </trkpt>
      <trkpt lat="50.41117" lon="2.71616">
        <ele>106.84</ele>
        <time>2015-09-25T13:19:42Z</time>
      </trkpt>
      <trkpt lat="50.41118" lon="2.71615">
        <ele>106.84</ele>
        <time>2015-09-25T13:19:58Z</time>
      </trkpt>
      <trkpt lat="50.41119" lon="2.71617">
        <ele>106.36</ele>
        <time>2015-09-25T13:20:15Z</time>
      </trkpt>
      <trkpt lat="50.41118" lon="2.71617">
        <ele>106.36</ele>
        <time>2015-09-25T13:20:42Z</time>
      </trkpt>
      <trkpt lat="50.41118" lon="2.71621">
        <ele>106.84</ele>
        <time>2015-09-25T13:21:05Z</time>
      </trkpt>
      <trkpt lat="50.41121" lon="2.71624">
        <ele>106.84</ele>
        <time>2015-09-25T13:21:21Z</time>
      </trkpt>
      <trkpt lat="50.41135" lon="2.71646">
        <ele>105.4</ele>
        <time>2015-09-25T13:21:37Z</time>
      </trkpt>
      <trkpt lat="50.41155" lon="2.71675">
        <ele>104.44</ele>
        <time>2015-09-25T13:21:56Z</time>
      </trkpt>
      <trkpt lat="50.41157" lon="2.71678">
        <ele>104.44</ele>
        <time>2015-09-25T13:21:59Z</time>
      </trkpt>
      <trkpt lat="50.41163" lon="2.71686">
        <ele>103.96</ele>
        <time>2015-09-25T13:22:06Z</time>
      </trkpt>
      <trkpt lat="50.41167" lon="2.71697">
        <ele>103.48</ele>
        <time>2015-09-25T13:22:11Z</time>
      </trkpt>
      <trkpt lat="50.41169" lon="2.71704">
        <ele>103.48</ele>
        <time>2015-09-25T13:22:15Z</time>
      </trkpt>
      <trkpt lat="50.41183" lon="2.71725">
        <ele>102.04</ele>
        <time>2015-09-25T13:22:28Z</time>
      </trkpt>
      <trkpt lat="50.4119" lon="2.71737">
        <ele>101.56</ele>
        <time>2015-09-25T13:22:34Z</time>
      </trkpt>
      <trkpt lat="50.41193" lon="2.71744">
        <ele>101.56</ele>
        <time>2015-09-25T13:22:37Z</time>
      </trkpt>
      <trkpt lat="50.41197" lon="2.71759">
        <ele>101.08</ele>
        <time>2015-09-25T13:22:44Z</time>
      </trkpt>
      <trkpt lat="50.41201" lon="2.71766">
        <ele>100.11</ele>
        <time>2015-09-25T13:22:48Z</time>
      </trkpt>
      <trkpt lat="50.41217" lon="2.71792">
        <ele>97.71</ele>
        <time>2015-09-25T13:23:04Z</time>
      </trkpt>
      <trkpt lat="50.41231" lon="2.71815">
        <ele>96.75</ele>
        <time>2015-09-25T13:23:19Z</time>
      </trkpt>
      <trkpt lat="50.4124" lon="2.71833">
        <ele>95.79</ele>
        <time>2015-09-25T13:23:30Z</time>
      </trkpt>
      <trkpt lat="50.41252" lon="2.71854">
        <ele>95.31</ele>
        <time>2015-09-25T13:23:43Z</time>
      </trkpt>
      <trkpt lat="50.41268" lon="2.7188">
        <ele>93.39</ele>
        <time>2015-09-25T13:24:00Z</time>
      </trkpt>
      <trkpt lat="50.41272" lon="2.71882">
        <ele>93.39</ele>
        <time>2015-09-25T13:24:11Z</time>
      </trkpt>
      <trkpt lat="50.41272" lon="2.71883">
        <ele>93.39</ele>
        <time>2015-09-25T13:24:23Z</time>
      </trkpt>
      <trkpt lat="50.41273" lon="2.71887">
        <ele>93.39</ele>
        <time>2015-09-25T13:24:41Z</time>
      </trkpt>
      <trkpt lat="50.41274" lon="2.71889">
        <ele>93.87</ele>
        <time>2015-09-25T13:25:05Z</time>
      </trkpt>
      <trkpt lat="50.41275" lon="2.71893">
        <ele>93.87</ele>
        <time>2015-09-25T13:25:35Z</time>
      </trkpt>
      <trkpt lat="50.41277" lon="2.7189">
        <ele>93.87</ele>
        <time>2015-09-25T13:26:05Z</time>
      </trkpt>
      <trkpt lat="50.41274" lon="2.71886">
        <ele>93.87</ele>
        <time>2015-09-25T13:26:11Z</time>
      </trkpt>
      <trkpt lat="50.41276" lon="2.71906">
        <ele>93.39</ele>
        <time>2015-09-25T13:26:24Z</time>
      </trkpt>
      <trkpt lat="50.41291" lon="2.71934">
        <ele>91.94</ele>
        <time>2015-09-25T13:26:43Z</time>
      </trkpt>
      <trkpt lat="50.41291" lon="2.71935">
        <ele>91.94</ele>
        <time>2015-09-25T13:26:49Z</time>
      </trkpt>
      <trkpt lat="50.41289" lon="2.71932">
        <ele>91.94</ele>
        <time>2015-09-25T13:26:52Z</time>
      </trkpt>
      <trkpt lat="50.4128" lon="2.7191">
        <ele>91.94</ele>
        <time>2015-09-25T13:27:05Z</time>
      </trkpt>
      <trkpt lat="50.41279" lon="2.71908">
        <ele>92.9</ele>
        <time>2015-09-25T13:27:06Z</time>
      </trkpt>
      <trkpt lat="50.41273" lon="2.71886">
        <ele>93.87</ele>
        <time>2015-09-25T13:27:19Z</time>
      </trkpt>
      <trkpt lat="50.41273" lon="2.71882">
        <ele>94.35</ele>
        <time>2015-09-25T13:27:31Z</time>
      </trkpt>
      <trkpt lat="50.41271" lon="2.71885">
        <ele>94.35</ele>
        <time>2015-09-25T13:27:50Z</time>
      </trkpt>
      <trkpt lat="50.4127" lon="2.71884">
        <ele>94.35</ele>
        <time>2015-09-25T13:28:15Z</time>
      </trkpt>
      <trkpt lat="50.41268" lon="2.71883">
        <ele>94.35</ele>
        <time>2015-09-25T13:28:29Z</time>
      </trkpt>
      <trkpt lat="50.41268" lon="2.71883">
        <ele>94.35</ele>
        <time>2015-09-25T13:28:41Z</time>
      </trkpt>
      <trkpt lat="50.41273" lon="2.7188">
        <ele>94.35</ele>
        <time>2015-09-25T13:29:06Z</time>
      </trkpt>
      <trkpt lat="50.41271" lon="2.71884">
        <ele>94.35</ele>
        <time>2015-09-25T13:29:26Z</time>
      </trkpt>
      <trkpt lat="50.4127" lon="2.71885">
        <ele>94.35</ele>
        <time>2015-09-25T13:29:28Z</time>
      </trkpt>
      <trkpt lat="50.41273" lon="2.71901">
        <ele>92.9</ele>
        <time>2015-09-25T13:29:38Z</time>
      </trkpt>
      <trkpt lat="50.41277" lon="2.71909">
        <ele>92.9</ele>
        <time>2015-09-25T13:29:44Z</time>
      </trkpt>
      <trkpt lat="50.41289" lon="2.71935">
        <ele>91.94</ele>
        <time>2015-09-25T13:30:00Z</time>
      </trkpt>
      <trkpt lat="50.41296" lon="2.71962">
        <ele>90.98</ele>
        <time>2015-09-25T13:30:14Z</time>
      </trkpt>
      <trkpt lat="50.41282" lon="2.71991">
        <ele>90.98</ele>
        <time>2015-09-25T13:30:30Z</time>
      </trkpt>
      <trkpt lat="50.41266" lon="2.72018">
        <ele>90.98</ele>
        <time>2015-09-25T13:30:47Z</time>
      </trkpt>
      <trkpt lat="50.41259" lon="2.72031">
        <ele>90.02</ele>
        <time>2015-09-25T13:30:55Z</time>
      </trkpt>
      <trkpt lat="50.41254" lon="2.72038">
        <ele>89.54</ele>
        <time>2015-09-25T13:31:00Z</time>
      </trkpt>
      <trkpt lat="50.41238" lon="2.72063">
        <ele>86.66</ele>
        <time>2015-09-25T13:31:15Z</time>
      </trkpt>
      <trkpt lat="50.41232" lon="2.7207">
        <ele>89.54</ele>
        <time>2015-09-25T13:31:20Z</time>
      </trkpt>
      <trkpt lat="50.41226" lon="2.72077">
        <ele>88.58</ele>
        <time>2015-09-25T13:31:25Z</time>
      </trkpt>
      <trkpt lat="50.41216" lon="2.72091">
        <ele>88.58</ele>
        <time>2015-09-25T13:31:35Z</time>
      </trkpt>
      <trkpt lat="50.41211" lon="2.72099">
        <ele>88.58</ele>
        <time>2015-09-25T13:31:40Z</time>
      </trkpt>
      <trkpt lat="50.41193" lon="2.7212">
        <ele>88.58</ele>
        <time>2015-09-25T13:31:59Z</time>
      </trkpt>
      <trkpt lat="50.41184" lon="2.72133">
        <ele>92.42</ele>
        <time>2015-09-25T13:32:08Z</time>
      </trkpt>
      <trkpt lat="50.41179" lon="2.72139">
        <ele>89.06</ele>
        <time>2015-09-25T13:32:13Z</time>
      </trkpt>
      <trkpt lat="50.41167" lon="2.72153">
        <ele>92.42</ele>
        <time>2015-09-25T13:32:24Z</time>
      </trkpt>
      <trkpt lat="50.41151" lon="2.7217">
        <ele>94.35</ele>
        <time>2015-09-25T13:32:40Z</time>
      </trkpt>
      <trkpt lat="50.41149" lon="2.72173">
        <ele>94.83</ele>
        <time>2015-09-25T13:32:54Z</time>
      </trkpt>
      <trkpt lat="50.41145" lon="2.72172">
        <ele>94.83</ele>
        <time>2015-09-25T13:33:09Z</time>
      </trkpt>
      <trkpt lat="50.41142" lon="2.72178">
        <ele>95.31</ele>
        <time>2015-09-25T13:33:25Z</time>
      </trkpt>
      <trkpt lat="50.41134" lon="2.72174">
        <ele>95.31</ele>
        <time>2015-09-25T13:33:59Z</time>
      </trkpt>
      <trkpt lat="50.41137" lon="2.72172">
        <ele>95.79</ele>
        <time>2015-09-25T13:34:29Z</time>
      </trkpt>
      <trkpt lat="50.41144" lon="2.72172">
        <ele>94.35</ele>
        <time>2015-09-25T13:34:43Z</time>
      </trkpt>
      <trkpt lat="50.41148" lon="2.72172">
        <ele>94.35</ele>
        <time>2015-09-25T13:35:05Z</time>
      </trkpt>
      <trkpt lat="50.4115" lon="2.72175">
        <ele>94.35</ele>
        <time>2015-09-25T13:35:24Z</time>
      </trkpt>
      <trkpt lat="50.41148" lon="2.72171">
        <ele>94.35</ele>
        <time>2015-09-25T13:35:42Z</time>
      </trkpt>
      <trkpt lat="50.41147" lon="2.72173">
        <ele>94.35</ele>
        <time>2015-09-25T13:35:58Z</time>
      </trkpt>
      <trkpt lat="50.4115" lon="2.72173">
        <ele>94.83</ele>
        <time>2015-09-25T13:36:36Z</time>
      </trkpt>
      <trkpt lat="50.41144" lon="2.72174">
        <ele>94.83</ele>
        <time>2015-09-25T13:37:02Z</time>
      </trkpt>
      <trkpt lat="50.4114" lon="2.72179">
        <ele>94.35</ele>
        <time>2015-09-25T13:37:23Z</time>
      </trkpt>
      <trkpt lat="50.41143" lon="2.72172">
        <ele>94.83</ele>
        <time>2015-09-25T13:37:53Z</time>
      </trkpt>
      <trkpt lat="50.41143" lon="2.72175">
        <ele>94.83</ele>
        <time>2015-09-25T13:38:33Z</time>
      </trkpt>
      <trkpt lat="50.41139" lon="2.72171">
        <ele>95.79</ele>
        <time>2015-09-25T13:38:52Z</time>
      </trkpt>
      <trkpt lat="50.41139" lon="2.72169">
        <ele>95.79</ele>
        <time>2015-09-25T13:39:17Z</time>
      </trkpt>
      <trkpt lat="50.4114" lon="2.72174">
        <ele>95.79</ele>
        <time>2015-09-25T13:39:40Z</time>
      </trkpt>
      <trkpt lat="50.41141" lon="2.72182">
        <ele>95.79</ele>
        <time>2015-09-25T13:40:02Z</time>
      </trkpt>
      <trkpt lat="50.4114" lon="2.72179">
        <ele>95.79</ele>
        <time>2015-09-25T13:40:30Z</time>
      </trkpt>
      <trkpt lat="50.41139" lon="2.72179">
        <ele>96.27</ele>
        <time>2015-09-25T13:41:00Z</time>
      </trkpt>
      <trkpt lat="50.41134" lon="2.72184">
        <ele>96.75</ele>
        <time>2015-09-25T13:41:16Z</time>
      </trkpt>
      <trkpt lat="50.41132" lon="2.72188">
        <ele>96.75</ele>
        <time>2015-09-25T13:41:20Z</time>
      </trkpt>
      <trkpt lat="50.41119" lon="2.72208">
        <ele>97.71</ele>
        <time>2015-09-25T13:41:35Z</time>
      </trkpt>
      <trkpt lat="50.41113" lon="2.72216">
        <ele>98.67</ele>
        <time>2015-09-25T13:41:41Z</time>
      </trkpt>
      <trkpt lat="50.41098" lon="2.72231">
        <ele>99.63</ele>
        <time>2015-09-25T13:41:55Z</time>
      </trkpt>
      <trkpt lat="50.41092" lon="2.7224">
        <ele>99.63</ele>
        <time>2015-09-25T13:42:02Z</time>
      </trkpt>
      <trkpt lat="50.41075" lon="2.72269">
        <ele>100.11</ele>
        <time>2015-09-25T13:42:18Z</time>
      </trkpt>
      <trkpt lat="50.41058" lon="2.723">
        <ele>100.11</ele>
        <time>2015-09-25T13:42:35Z</time>
      </trkpt>
      <trkpt lat="50.41046" lon="2.72322">
        <ele>100.11</ele>
        <time>2015-09-25T13:42:48Z</time>
      </trkpt>
      <trkpt lat="50.41022" lon="2.72333">
        <ele>101.56</ele>
        <time>2015-09-25T13:43:05Z</time>
      </trkpt>
      <trkpt lat="50.40996" lon="2.7235">
        <ele>102.04</ele>
        <time>2015-09-25T13:43:23Z</time>
      </trkpt>
      <trkpt lat="50.4098" lon="2.72371">
        <ele>103</ele>
        <time>2015-09-25T13:43:37Z</time>
      </trkpt>
      <trkpt lat="50.40974" lon="2.7239">
        <ele>103.48</ele>
        <time>2015-09-25T13:43:51Z</time>
      </trkpt>
      <trkpt lat="50.40974" lon="2.72387">
        <ele>103.48</ele>
        <time>2015-09-25T13:44:02Z</time>
      </trkpt>
      <trkpt lat="50.40974" lon="2.72387">
        <ele>103.48</ele>
        <time>2015-09-25T13:44:15Z</time>
      </trkpt>
      <trkpt lat="50.40975" lon="2.72386">
        <ele>103.48</ele>
        <time>2015-09-25T13:44:27Z</time>
      </trkpt>
      <trkpt lat="50.40975" lon="2.72386">
        <ele>103.48</ele>
        <time>2015-09-25T13:44:30Z</time>
      </trkpt>
      <trkpt lat="50.40976" lon="2.72389">
        <ele>103.48</ele>
        <time>2015-09-25T13:44:42Z</time>
      </trkpt>
      <trkpt lat="50.40974" lon="2.72382">
        <ele>103.48</ele>
        <time>2015-09-25T13:44:54Z</time>
      </trkpt>
      <trkpt lat="50.40972" lon="2.72385">
        <ele>103.48</ele>
        <time>2015-09-25T13:45:06Z</time>
      </trkpt>
      <trkpt lat="50.4097" lon="2.72392">
        <ele>103.48</ele>
        <time>2015-09-25T13:45:16Z</time>
      </trkpt>
      <trkpt lat="50.40971" lon="2.72391">
        <ele>103.48</ele>
        <time>2015-09-25T13:45:29Z</time>
      </trkpt>
      <trkpt lat="50.40969" lon="2.72389">
        <ele>103.96</ele>
        <time>2015-09-25T13:45:42Z</time>
      </trkpt>
      <trkpt lat="50.40972" lon="2.72383">
        <ele>103.96</ele>
        <time>2015-09-25T13:46:00Z</time>
      </trkpt>
      <trkpt lat="50.40976" lon="2.72382">
        <ele>104.44</ele>
        <time>2015-09-25T13:46:07Z</time>
      </trkpt>
      <trkpt lat="50.40975" lon="2.72386">
        <ele>103</ele>
        <time>2015-09-25T13:46:13Z</time>
      </trkpt>
      <trkpt lat="50.40976" lon="2.72387">
        <ele>103</ele>
        <time>2015-09-25T13:46:32Z</time>
      </trkpt>
      <trkpt lat="50.40977" lon="2.72391">
        <ele>103</ele>
        <time>2015-09-25T13:46:44Z</time>
      </trkpt>
      <trkpt lat="50.40979" lon="2.724">
        <ele>103</ele>
        <time>2015-09-25T13:47:10Z</time>
      </trkpt>
      <trkpt lat="50.40986" lon="2.72395">
        <ele>103</ele>
        <time>2015-09-25T13:47:40Z</time>
      </trkpt>
      <trkpt lat="50.40985" lon="2.72402">
        <ele>103</ele>
        <time>2015-09-25T13:48:11Z</time>
      </trkpt>
      <trkpt lat="50.40984" lon="2.72397">
        <ele>103.48</ele>
        <time>2015-09-25T13:48:39Z</time>
      </trkpt>
      <trkpt lat="50.40983" lon="2.72396">
        <ele>103.48</ele>
        <time>2015-09-25T13:48:40Z</time>
      </trkpt>
      <trkpt lat="50.40983" lon="2.72393">
        <ele>103.48</ele>
        <time>2015-09-25T13:48:42Z</time>
      </trkpt>
      <trkpt lat="50.4098" lon="2.72387">
        <ele>103.48</ele>
        <time>2015-09-25T13:48:45Z</time>
      </trkpt>
      <trkpt lat="50.40959" lon="2.72409">
        <ele>104.44</ele>
        <time>2015-09-25T13:49:04Z</time>
      </trkpt>
      <trkpt lat="50.40947" lon="2.72421">
        <ele>103.48</ele>
        <time>2015-09-25T13:49:16Z</time>
      </trkpt>
      <trkpt lat="50.40936" lon="2.72431">
        <ele>103</ele>
        <time>2015-09-25T13:49:26Z</time>
      </trkpt>
      <trkpt lat="50.40927" lon="2.72439">
        <ele>102.52</ele>
        <time>2015-09-25T13:49:35Z</time>
      </trkpt>
      <trkpt lat="50.40912" lon="2.72443">
        <ele>102.04</ele>
        <time>2015-09-25T13:49:50Z</time>
      </trkpt>
      <trkpt lat="50.40909" lon="2.72445">
        <ele>102.04</ele>
        <time>2015-09-25T13:49:53Z</time>
      </trkpt>
      <trkpt lat="50.40902" lon="2.72446">
        <ele>101.56</ele>
        <time>2015-09-25T13:49:58Z</time>
      </trkpt>
      <trkpt lat="50.40894" lon="2.72442">
        <ele>101.56</ele>
        <time>2015-09-25T13:50:03Z</time>
      </trkpt>
      <trkpt lat="50.40879" lon="2.72433">
        <ele>101.56</ele>
        <time>2015-09-25T13:50:15Z</time>
      </trkpt>
      <trkpt lat="50.40862" lon="2.72426">
        <ele>101.56</ele>
        <time>2015-09-25T13:50:28Z</time>
      </trkpt>
      <trkpt lat="50.40837" lon="2.72412">
        <ele>102.04</ele>
        <time>2015-09-25T13:50:48Z</time>
      </trkpt>
      <trkpt lat="50.40821" lon="2.72403">
        <ele>101.56</ele>
        <time>2015-09-25T13:51:02Z</time>
      </trkpt>
      <trkpt lat="50.40813" lon="2.72401">
        <ele>101.56</ele>
        <time>2015-09-25T13:51:08Z</time>
      </trkpt>
      <trkpt lat="50.40809" lon="2.72399">
        <ele>103</ele>
        <time>2015-09-25T13:51:11Z</time>
      </trkpt>
      <trkpt lat="50.40808" lon="2.72398">
        <ele>102.04</ele>
        <time>2015-09-25T13:51:12Z</time>
      </trkpt>
      <trkpt lat="50.40791" lon="2.72391">
        <ele>101.56</ele>
        <time>2015-09-25T13:51:25Z</time>
      </trkpt>
      <trkpt lat="50.40788" lon="2.7239">
        <ele>101.56</ele>
        <time>2015-09-25T13:51:27Z</time>
      </trkpt>
      <trkpt lat="50.40781" lon="2.72395">
        <ele>101.56</ele>
        <time>2015-09-25T13:51:32Z</time>
      </trkpt>
      <trkpt lat="50.40771" lon="2.72427">
        <ele>101.08</ele>
        <time>2015-09-25T13:51:48Z</time>
      </trkpt>
      <trkpt lat="50.40763" lon="2.72457">
        <ele>101.08</ele>
        <time>2015-09-25T13:52:03Z</time>
      </trkpt>
      <trkpt lat="50.40756" lon="2.72475">
        <ele>101.08</ele>
        <time>2015-09-25T13:52:19Z</time>
      </trkpt>
      <trkpt lat="50.40756" lon="2.72475">
        <ele>101.08</ele>
        <time>2015-09-25T13:52:29Z</time>
      </trkpt>
      <trkpt lat="50.40759" lon="2.72473">
        <ele>101.08</ele>
        <time>2015-09-25T13:52:42Z</time>
      </trkpt>
      <trkpt lat="50.40762" lon="2.72466">
        <ele>101.08</ele>
        <time>2015-09-25T13:52:56Z</time>
      </trkpt>
      <trkpt lat="50.40765" lon="2.7246">
        <ele>100.6</ele>
        <time>2015-09-25T13:53:11Z</time>
      </trkpt>
      <trkpt lat="50.40765" lon="2.7246">
        <ele>100.6</ele>
        <time>2015-09-25T13:53:23Z</time>
      </trkpt>
      <trkpt lat="50.40763" lon="2.72463">
        <ele>100.6</ele>
        <time>2015-09-25T13:53:40Z</time>
      </trkpt>
      <trkpt lat="50.40762" lon="2.72468">
        <ele>101.08</ele>
        <time>2015-09-25T13:53:55Z</time>
      </trkpt>
      <trkpt lat="50.40762" lon="2.72467">
        <ele>101.08</ele>
        <time>2015-09-25T13:54:18Z</time>
      </trkpt>
      <trkpt lat="50.40761" lon="2.72465">
        <ele>101.08</ele>
        <time>2015-09-25T13:54:31Z</time>
      </trkpt>
      <trkpt lat="50.40763" lon="2.7246">
        <ele>101.08</ele>
        <time>2015-09-25T13:54:46Z</time>
      </trkpt>
      <trkpt lat="50.40762" lon="2.72464">
        <ele>101.08</ele>
        <time>2015-09-25T13:54:58Z</time>
      </trkpt>
      <trkpt lat="50.40761" lon="2.72472">
        <ele>102.52</ele>
        <time>2015-09-25T13:55:11Z</time>
      </trkpt>
      <trkpt lat="50.40761" lon="2.7247">
        <ele>102.52</ele>
        <time>2015-09-25T13:55:29Z</time>
      </trkpt>
      <trkpt lat="50.4076" lon="2.72473">
        <ele>102.52</ele>
        <time>2015-09-25T13:55:53Z</time>
      </trkpt>
      <trkpt lat="50.40761" lon="2.72475">
        <ele>102.52</ele>
        <time>2015-09-25T13:56:20Z</time>
      </trkpt>
      <trkpt lat="50.4076" lon="2.72472">
        <ele>102.52</ele>
        <time>2015-09-25T13:56:34Z</time>
      </trkpt>
      <trkpt lat="50.40744" lon="2.72493">
        <ele>103</ele>
        <time>2015-09-25T13:56:50Z</time>
      </trkpt>
      <trkpt lat="50.40741" lon="2.72498">
        <ele>103</ele>
        <time>2015-09-25T13:56:53Z</time>
      </trkpt>
      <trkpt lat="50.40726" lon="2.72525">
        <ele>105.4</ele>
        <time>2015-09-25T13:57:11Z</time>
      </trkpt>
      <trkpt lat="50.40722" lon="2.72533">
        <ele>105.88</ele>
        <time>2015-09-25T13:57:16Z</time>
      </trkpt>
      <trkpt lat="50.40708" lon="2.72562">
        <ele>105.88</ele>
        <time>2015-09-25T13:57:33Z</time>
      </trkpt>
      <trkpt lat="50.40693" lon="2.726">
        <ele>105.88</ele>
        <time>2015-09-25T13:57:53Z</time>
      </trkpt>
      <trkpt lat="50.40688" lon="2.72616">
        <ele>102.52</ele>
        <time>2015-09-25T13:58:02Z</time>
      </trkpt>
      <trkpt lat="50.40687" lon="2.72618">
        <ele>106.84</ele>
        <time>2015-09-25T13:58:03Z</time>
      </trkpt>
      <trkpt lat="50.40682" lon="2.7265">
        <ele>104.92</ele>
        <time>2015-09-25T13:58:17Z</time>
      </trkpt>
      <trkpt lat="50.4068" lon="2.72662">
        <ele>104.44</ele>
        <time>2015-09-25T13:58:22Z</time>
      </trkpt>
      <trkpt lat="50.40673" lon="2.72658">
        <ele>104.44</ele>
        <time>2015-09-25T13:58:29Z</time>
      </trkpt>
      <trkpt lat="50.4066" lon="2.72628">
        <ele>104.44</ele>
        <time>2015-09-25T13:58:46Z</time>
      </trkpt>
      <trkpt lat="50.40642" lon="2.72592">
        <ele>107.81</ele>
        <time>2015-09-25T13:59:07Z</time>
      </trkpt>
      <trkpt lat="50.40641" lon="2.72589">
        <ele>106.36</ele>
        <time>2015-09-25T13:59:09Z</time>
      </trkpt>
      <trkpt lat="50.40624" lon="2.72555">
        <ele>107.32</ele>
        <time>2015-09-25T13:59:28Z</time>
      </trkpt>
      <trkpt lat="50.40606" lon="2.72525">
        <ele>109.73</ele>
        <time>2015-09-25T13:59:47Z</time>
      </trkpt>
      <trkpt lat="50.40578" lon="2.72501">
        <ele>112.61</ele>
        <time>2015-09-25T14:00:09Z</time>
      </trkpt>
      <trkpt lat="50.40557" lon="2.72488">
        <ele>115.01</ele>
        <time>2015-09-25T14:00:27Z</time>
      </trkpt>
      <trkpt lat="50.40537" lon="2.72473">
        <ele>117.42</ele>
        <time>2015-09-25T14:00:43Z</time>
      </trkpt>
      <trkpt lat="50.40521" lon="2.72462">
        <ele>119.82</ele>
        <time>2015-09-25T14:00:57Z</time>
      </trkpt>
      <trkpt lat="50.4052" lon="2.72461">
        <ele>120.3</ele>
        <time>2015-09-25T14:00:58Z</time>
      </trkpt>
      <trkpt lat="50.40508" lon="2.72452">
        <ele>121.74</ele>
        <time>2015-09-25T14:01:10Z</time>
      </trkpt>
      <trkpt lat="50.40501" lon="2.72452">
        <ele>123.19</ele>
        <time>2015-09-25T14:01:24Z</time>
      </trkpt>
      <trkpt lat="50.40502" lon="2.72452">
        <ele>123.67</ele>
        <time>2015-09-25T14:01:38Z</time>
      </trkpt>
      <trkpt lat="50.40501" lon="2.72453">
        <ele>123.67</ele>
        <time>2015-09-25T14:01:53Z</time>
      </trkpt>
      <trkpt lat="50.40499" lon="2.72454">
        <ele>123.67</ele>
        <time>2015-09-25T14:02:20Z</time>
      </trkpt>
      <trkpt lat="50.40502" lon="2.72452">
        <ele>123.67</ele>
        <time>2015-09-25T14:02:39Z</time>
      </trkpt>
      <trkpt lat="50.40501" lon="2.72451">
        <ele>123.67</ele>
        <time>2015-09-25T14:03:12Z</time>
      </trkpt>
      <trkpt lat="50.40501" lon="2.72451">
        <ele>124.15</ele>
        <time>2015-09-25T14:03:24Z</time>
      </trkpt>
      <trkpt lat="50.40502" lon="2.72453">
        <ele>124.15</ele>
        <time>2015-09-25T14:03:37Z</time>
      </trkpt>
      <trkpt lat="50.40504" lon="2.72455">
        <ele>124.15</ele>
        <time>2015-09-25T14:04:03Z</time>
      </trkpt>
      <trkpt lat="50.40502" lon="2.72453">
        <ele>124.15</ele>
        <time>2015-09-25T14:04:32Z</time>
      </trkpt>
      <trkpt lat="50.40501" lon="2.72456">
        <ele>124.15</ele>
        <time>2015-09-25T14:05:00Z</time>
      </trkpt>
      <trkpt lat="50.40502" lon="2.72453">
        <ele>124.15</ele>
        <time>2015-09-25T14:05:16Z</time>
      </trkpt>
      <trkpt lat="50.40499" lon="2.72445">
        <ele>122.71</ele>
        <time>2015-09-25T14:05:24Z</time>
      </trkpt>
      <trkpt lat="50.40486" lon="2.72438">
        <ele>125.59</ele>
        <time>2015-09-25T14:05:37Z</time>
      </trkpt>
      <trkpt lat="50.40485" lon="2.72437">
        <ele>125.59</ele>
        <time>2015-09-25T14:05:38Z</time>
      </trkpt>
      <trkpt lat="50.40482" lon="2.72433">
        <ele>127.51</ele>
        <time>2015-09-25T14:05:42Z</time>
      </trkpt>
      <trkpt lat="50.40471" lon="2.72426">
        <ele>127.99</ele>
        <time>2015-09-25T14:05:54Z</time>
      </trkpt>
      <trkpt lat="50.40456" lon="2.72415">
        <ele>129.92</ele>
        <time>2015-09-25T14:06:09Z</time>
      </trkpt>
      <trkpt lat="50.40453" lon="2.72412">
        <ele>130.88</ele>
        <time>2015-09-25T14:06:12Z</time>
      </trkpt>
      <trkpt lat="50.40448" lon="2.72409">
        <ele>131.36</ele>
        <time>2015-09-25T14:06:17Z</time>
      </trkpt>
      <trkpt lat="50.40429" lon="2.72397">
        <ele>135.2</ele>
        <time>2015-09-25T14:06:34Z</time>
      </trkpt>
      <trkpt lat="50.40422" lon="2.72393">
        <ele>135.68</ele>
        <time>2015-09-25T14:06:40Z</time>
      </trkpt>
      <trkpt lat="50.40415" lon="2.72387">
        <ele>136.64</ele>
        <time>2015-09-25T14:06:46Z</time>
      </trkpt>
      <trkpt lat="50.4041" lon="2.72385">
        <ele>137.61</ele>
        <time>2015-09-25T14:06:51Z</time>
      </trkpt>
      <trkpt lat="50.40397" lon="2.72374">
        <ele>139.53</ele>
        <time>2015-09-25T14:07:04Z</time>
      </trkpt>
      <trkpt lat="50.40388" lon="2.72368">
        <ele>140.97</ele>
        <time>2015-09-25T14:07:12Z</time>
      </trkpt>
      <trkpt lat="50.40381" lon="2.72362">
        <ele>141.45</ele>
        <time>2015-09-25T14:07:18Z</time>
      </trkpt>
      <trkpt lat="50.40366" lon="2.72347">
        <ele>143.85</ele>
        <time>2015-09-25T14:07:32Z</time>
      </trkpt>
      <trkpt lat="50.40359" lon="2.7234">
        <ele>144.82</ele>
        <time>2015-09-25T14:07:38Z</time>
      </trkpt>
      <trkpt lat="50.40353" lon="2.72332">
        <ele>145.3</ele>
        <time>2015-09-25T14:07:43Z</time>
      </trkpt>
      <trkpt lat="50.40345" lon="2.72321">
        <ele>146.26</ele>
        <time>2015-09-25T14:07:51Z</time>
      </trkpt>
      <trkpt lat="50.40329" lon="2.72307">
        <ele>147.22</ele>
        <time>2015-09-25T14:08:04Z</time>
      </trkpt>
      <trkpt lat="50.40315" lon="2.72296">
        <ele>149.14</ele>
        <time>2015-09-25T14:08:20Z</time>
      </trkpt>
      <trkpt lat="50.40317" lon="2.72297">
        <ele>149.14</ele>
        <time>2015-09-25T14:08:46Z</time>
      </trkpt>
      <trkpt lat="50.40319" lon="2.72298">
        <ele>149.14</ele>
        <time>2015-09-25T14:09:14Z</time>
      </trkpt>
      <trkpt lat="50.40319" lon="2.72296">
        <ele>149.14</ele>
        <time>2015-09-25T14:09:54Z</time>
      </trkpt>
      <trkpt lat="50.40316" lon="2.72295">
        <ele>149.14</ele>
        <time>2015-09-25T14:10:29Z</time>
      </trkpt>
      <trkpt lat="50.40314" lon="2.72299">
        <ele>149.14</ele>
        <time>2015-09-25T14:11:07Z</time>
      </trkpt>
      <trkpt lat="50.40316" lon="2.72296">
        <ele>149.14</ele>
        <time>2015-09-25T14:11:38Z</time>
      </trkpt>
      <trkpt lat="50.40317" lon="2.72297">
        <ele>149.14</ele>
        <time>2015-09-25T14:11:59Z</time>
      </trkpt>
      <trkpt lat="50.40316" lon="2.72297">
        <ele>149.14</ele>
        <time>2015-09-25T14:12:12Z</time>
      </trkpt>
      <trkpt lat="50.40317" lon="2.72297">
        <ele>149.14</ele>
        <time>2015-09-25T14:12:19Z</time>
      </trkpt>
      <trkpt lat="50.40316" lon="2.72297">
        <ele>149.14</ele>
        <time>2015-09-25T14:12:31Z</time>
      </trkpt>
      <trkpt lat="50.40315" lon="2.72298">
        <ele>149.14</ele>
        <time>2015-09-25T14:12:48Z</time>
      </trkpt>
      <trkpt lat="50.40316" lon="2.72297">
        <ele>149.14</ele>
        <time>2015-09-25T14:12:49Z</time>
      </trkpt>
      <trkpt lat="50.40316" lon="2.72292">
        <ele>149.14</ele>
        <time>2015-09-25T14:12:52Z</time>
      </trkpt>
      <trkpt lat="50.40309" lon="2.72287">
        <ele>150.1</ele>
        <time>2015-09-25T14:12:58Z</time>
      </trkpt>
      <trkpt lat="50.40304" lon="2.72281">
        <ele>150.58</ele>
        <time>2015-09-25T14:13:03Z</time>
      </trkpt>
      <trkpt lat="50.40286" lon="2.72265">
        <ele>152.03</ele>
        <time>2015-09-25T14:13:21Z</time>
      </trkpt>
      <trkpt lat="50.40282" lon="2.72266">
        <ele>152.51</ele>
        <time>2015-09-25T14:13:26Z</time>
      </trkpt>
      <trkpt lat="50.40274" lon="2.72288">
        <ele>152.51</ele>
        <time>2015-09-25T14:13:39Z</time>
      </trkpt>
      <trkpt lat="50.40266" lon="2.72317">
        <ele>152.51</ele>
        <time>2015-09-25T14:13:54Z</time>
      </trkpt>
      <trkpt lat="50.40257" lon="2.7233">
        <ele>152.51</ele>
        <time>2015-09-25T14:14:04Z</time>
      </trkpt>
      <trkpt lat="50.40252" lon="2.72335">
        <ele>152.51</ele>
        <time>2015-09-25T14:14:10Z</time>
      </trkpt>
      <trkpt lat="50.40246" lon="2.72324">
        <ele>152.99</ele>
        <time>2015-09-25T14:14:24Z</time>
      </trkpt>
      <trkpt lat="50.40246" lon="2.72323">
        <ele>152.99</ele>
        <time>2015-09-25T14:14:37Z</time>
      </trkpt>
      <trkpt lat="50.40248" lon="2.72321">
        <ele>152.99</ele>
        <time>2015-09-25T14:14:39Z</time>
      </trkpt>
      <trkpt lat="50.4025" lon="2.72323">
        <ele>152.99</ele>
        <time>2015-09-25T14:14:51Z</time>
      </trkpt>
      <trkpt lat="50.40247" lon="2.72333">
        <ele>152.99</ele>
        <time>2015-09-25T14:15:02Z</time>
      </trkpt>
      <trkpt lat="50.40244" lon="2.72336">
        <ele>152.99</ele>
        <time>2015-09-25T14:15:05Z</time>
      </trkpt>
      <trkpt lat="50.40235" lon="2.7234">
        <ele>152.03</ele>
        <time>2015-09-25T14:15:11Z</time>
      </trkpt>
      <trkpt lat="50.40213" lon="2.72352">
        <ele>152.03</ele>
        <time>2015-09-25T14:15:30Z</time>
      </trkpt>
      <trkpt lat="50.40209" lon="2.72355">
        <ele>152.03</ele>
        <time>2015-09-25T14:15:54Z</time>
      </trkpt>
      <trkpt lat="50.40207" lon="2.72356">
        <ele>151.54</ele>
        <time>2015-09-25T14:16:16Z</time>
      </trkpt>
      <trkpt lat="50.40199" lon="2.72357">
        <ele>156.83</ele>
        <time>2015-09-25T14:16:21Z</time>
      </trkpt>
      <trkpt lat="50.40198" lon="2.72358">
        <ele>152.99</ele>
        <time>2015-09-25T14:16:22Z</time>
      </trkpt>
      <trkpt lat="50.4019" lon="2.7236">
        <ele>152.51</ele>
        <time>2015-09-25T14:16:29Z</time>
      </trkpt>
      <trkpt lat="50.40175" lon="2.72363">
        <ele>152.51</ele>
        <time>2015-09-25T14:16:43Z</time>
      </trkpt>
      <trkpt lat="50.40164" lon="2.72364">
        <ele>153.95</ele>
        <time>2015-09-25T14:16:50Z</time>
      </trkpt>
      <trkpt lat="50.40157" lon="2.72364">
        <ele>154.43</ele>
        <time>2015-09-25T14:16:55Z</time>
      </trkpt>
      <trkpt lat="50.40142" lon="2.72374">
        <ele>154.43</ele>
        <time>2015-09-25T14:17:09Z</time>
      </trkpt>
      <trkpt lat="50.40135" lon="2.72385">
        <ele>154.43</ele>
        <time>2015-09-25T14:17:23Z</time>
      </trkpt>
      <trkpt lat="50.40136" lon="2.72386">
        <ele>154.43</ele>
        <time>2015-09-25T14:17:35Z</time>
      </trkpt>
      <trkpt lat="50.40138" lon="2.72391">
        <ele>154.43</ele>
        <time>2015-09-25T14:18:06Z</time>
      </trkpt>
      <trkpt lat="50.40136" lon="2.72394">
        <ele>154.43</ele>
        <time>2015-09-25T14:18:42Z</time>
      </trkpt>
      <trkpt lat="50.40132" lon="2.7239">
        <ele>154.43</ele>
        <time>2015-09-25T14:18:59Z</time>
      </trkpt>
      <trkpt lat="50.40114" lon="2.72412">
        <ele>154.91</ele>
        <time>2015-09-25T14:19:18Z</time>
      </trkpt>
      <trkpt lat="50.40109" lon="2.72422">
        <ele>154.91</ele>
        <time>2015-09-25T14:19:25Z</time>
      </trkpt>
      <trkpt lat="50.40095" lon="2.72449">
        <ele>154.91</ele>
        <time>2015-09-25T14:19:41Z</time>
      </trkpt>
      <trkpt lat="50.4008" lon="2.72479">
        <ele>154.91</ele>
        <time>2015-09-25T14:19:57Z</time>
      </trkpt>
      <trkpt lat="50.40063" lon="2.72497">
        <ele>154.91</ele>
        <time>2015-09-25T14:20:12Z</time>
      </trkpt>
      <trkpt lat="50.40035" lon="2.72503">
        <ele>156.35</ele>
        <time>2015-09-25T14:20:34Z</time>
      </trkpt>
      <trkpt lat="50.40017" lon="2.72482">
        <ele>156.35</ele>
        <time>2015-09-25T14:20:51Z</time>
      </trkpt>
      <trkpt lat="50.40001" lon="2.72455">
        <ele>157.31</ele>
        <time>2015-09-25T14:21:07Z</time>
      </trkpt>
      <trkpt lat="50.39984" lon="2.72425">
        <ele>158.27</ele>
        <time>2015-09-25T14:21:26Z</time>
      </trkpt>
      <trkpt lat="50.39981" lon="2.72417">
        <ele>158.27</ele>
        <time>2015-09-25T14:21:39Z</time>
      </trkpt>
      <trkpt lat="50.39981" lon="2.72415">
        <ele>158.27</ele>
        <time>2015-09-25T14:21:51Z</time>
      </trkpt>
      <trkpt lat="50.39982" lon="2.72417">
        <ele>158.27</ele>
        <time>2015-09-25T14:22:03Z</time>
      </trkpt>
      <trkpt lat="50.39983" lon="2.72417">
        <ele>159.24</ele>
        <time>2015-09-25T14:22:22Z</time>
      </trkpt>
      <trkpt lat="50.39982" lon="2.72417">
        <ele>157.79</ele>
        <time>2015-09-25T14:22:36Z</time>
      </trkpt>
      <trkpt lat="50.39984" lon="2.7242">
        <ele>157.79</ele>
        <time>2015-09-25T14:22:56Z</time>
      </trkpt>
      <trkpt lat="50.39985" lon="2.72421">
        <ele>157.79</ele>
        <time>2015-09-25T14:23:10Z</time>
      </trkpt>
      <trkpt lat="50.39983" lon="2.72421">
        <ele>157.79</ele>
        <time>2015-09-25T14:23:47Z</time>
      </trkpt>
      <trkpt lat="50.39983" lon="2.7242">
        <ele>157.79</ele>
        <time>2015-09-25T14:24:18Z</time>
      </trkpt>
      <trkpt lat="50.39983" lon="2.72419">
        <ele>157.79</ele>
        <time>2015-09-25T14:24:34Z</time>
      </trkpt>
      <trkpt lat="50.39984" lon="2.72418">
        <ele>157.79</ele>
        <time>2015-09-25T14:24:54Z</time>
      </trkpt>
      <trkpt lat="50.39984" lon="2.72415">
        <ele>157.79</ele>
        <time>2015-09-25T14:25:23Z</time>
      </trkpt>
      <trkpt lat="50.39983" lon="2.72416">
        <ele>157.79</ele>
        <time>2015-09-25T14:25:45Z</time>
      </trkpt>
      <trkpt lat="50.39982" lon="2.72416">
        <ele>157.79</ele>
        <time>2015-09-25T14:26:05Z</time>
      </trkpt>
      <trkpt lat="50.39983" lon="2.72416">
        <ele>157.79</ele>
        <time>2015-09-25T14:26:25Z</time>
      </trkpt>
      <trkpt lat="50.39983" lon="2.72417">
        <ele>157.79</ele>
        <time>2015-09-25T14:26:48Z</time>
      </trkpt>
      <trkpt lat="50.39982" lon="2.72416">
        <ele>157.79</ele>
        <time>2015-09-25T14:27:09Z</time>
      </trkpt>
      <trkpt lat="50.39983" lon="2.72419">
        <ele>157.79</ele>
        <time>2015-09-25T14:27:35Z</time>
      </trkpt>
      <trkpt lat="50.39982" lon="2.72418">
        <ele>157.79</ele>
        <time>2015-09-25T14:27:52Z</time>
      </trkpt>
      <trkpt lat="50.39983" lon="2.72419">
        <ele>157.79</ele>
        <time>2015-09-25T14:28:09Z</time>
      </trkpt>
      <trkpt lat="50.39984" lon="2.72419">
        <ele>157.79</ele>
        <time>2015-09-25T14:28:24Z</time>
      </trkpt>
      <trkpt lat="50.39983" lon="2.72418">
        <ele>157.79</ele>
        <time>2015-09-25T14:28:39Z</time>
      </trkpt>
      <trkpt lat="50.39983" lon="2.72415">
        <ele>157.79</ele>
        <time>2015-09-25T14:28:51Z</time>
      </trkpt>
      <trkpt lat="50.39981" lon="2.72414">
        <ele>157.79</ele>
        <time>2015-09-25T14:29:05Z</time>
      </trkpt>
      <trkpt lat="50.3998" lon="2.72417">
        <ele>157.79</ele>
        <time>2015-09-25T14:29:17Z</time>
      </trkpt>
      <trkpt lat="50.39981" lon="2.72418">
        <ele>157.79</ele>
        <time>2015-09-25T14:29:28Z</time>
      </trkpt>
      <trkpt lat="50.3998" lon="2.72415">
        <ele>158.27</ele>
        <time>2015-09-25T14:29:31Z</time>
      </trkpt>
      <trkpt lat="50.39977" lon="2.72409">
        <ele>158.27</ele>
        <time>2015-09-25T14:29:36Z</time>
      </trkpt>
      <trkpt lat="50.39973" lon="2.72401">
        <ele>159.24</ele>
        <time>2015-09-25T14:29:42Z</time>
      </trkpt>
      <trkpt lat="50.39973" lon="2.72394">
        <ele>159.24</ele>
        <time>2015-09-25T14:29:46Z</time>
      </trkpt>
      <trkpt lat="50.39974" lon="2.72372">
        <ele>159.72</ele>
        <time>2015-09-25T14:29:58Z</time>
      </trkpt>
      <trkpt lat="50.39974" lon="2.72369">
        <ele>159.72</ele>
        <time>2015-09-25T14:30:00Z</time>
      </trkpt>
      <trkpt lat="50.39973" lon="2.72365">
        <ele>159.72</ele>
        <time>2015-09-25T14:30:02Z</time>
      </trkpt>
      <trkpt lat="50.39972" lon="2.72351">
        <ele>160.2</ele>
        <time>2015-09-25T14:30:09Z</time>
      </trkpt>
      <trkpt lat="50.39972" lon="2.72317">
        <ele>160.68</ele>
        <time>2015-09-25T14:30:26Z</time>
      </trkpt>
      <trkpt lat="50.39965" lon="2.72288">
        <ele>161.64</ele>
        <time>2015-09-25T14:30:41Z</time>
      </trkpt>
      <trkpt lat="50.39957" lon="2.72258">
        <ele>162.12</ele>
        <time>2015-09-25T14:30:57Z</time>
      </trkpt>
      <trkpt lat="50.39969" lon="2.72225">
        <ele>162.12</ele>
        <time>2015-09-25T14:31:17Z</time>
      </trkpt>
      <trkpt lat="50.39979" lon="2.72194">
        <ele>163.08</ele>
        <time>2015-09-25T14:31:36Z</time>
      </trkpt>
      <trkpt lat="50.39984" lon="2.72153">
        <ele>164.52</ele>
        <time>2015-09-25T14:31:57Z</time>
      </trkpt>
      <trkpt lat="50.39988" lon="2.72104">
        <ele>165</ele>
        <time>2015-09-25T14:32:22Z</time>
      </trkpt>
      <trkpt lat="50.39992" lon="2.72064">
        <ele>165.48</ele>
        <time>2015-09-25T14:32:42Z</time>
      </trkpt>
      <trkpt lat="50.39993" lon="2.72027">
        <ele>166.45</ele>
        <time>2015-09-25T14:33:01Z</time>
      </trkpt>
      <trkpt lat="50.39995" lon="2.71986">
        <ele>166.45</ele>
        <time>2015-09-25T14:33:22Z</time>
      </trkpt>
      <trkpt lat="50.39995" lon="2.71982">
        <ele>166.45</ele>
        <time>2015-09-25T14:33:24Z</time>
      </trkpt>
      <trkpt lat="50.39989" lon="2.71969">
        <ele>166.45</ele>
        <time>2015-09-25T14:33:32Z</time>
      </trkpt>
      <trkpt lat="50.39989" lon="2.71962">
        <ele>166.93</ele>
        <time>2015-09-25T14:33:36Z</time>
      </trkpt>
      <trkpt lat="50.39991" lon="2.71951">
        <ele>166.93</ele>
        <time>2015-09-25T14:33:42Z</time>
      </trkpt>
      <trkpt lat="50.39984" lon="2.71952">
        <ele>166.93</ele>
        <time>2015-09-25T14:33:50Z</time>
      </trkpt>
      <trkpt lat="50.39966" lon="2.71971">
        <ele>165.48</ele>
        <time>2015-09-25T14:34:09Z</time>
      </trkpt>
      <trkpt lat="50.3996" lon="2.71985">
        <ele>165.48</ele>
        <time>2015-09-25T14:34:24Z</time>
      </trkpt>
      <trkpt lat="50.39961" lon="2.71985">
        <ele>165.48</ele>
        <time>2015-09-25T14:34:42Z</time>
      </trkpt>
      <trkpt lat="50.3996" lon="2.71984">
        <ele>165.48</ele>
        <time>2015-09-25T14:34:59Z</time>
      </trkpt>
      <trkpt lat="50.39961" lon="2.71976">
        <ele>165</ele>
        <time>2015-09-25T14:35:07Z</time>
      </trkpt>
      <trkpt lat="50.39961" lon="2.71972">
        <ele>165</ele>
        <time>2015-09-25T14:35:09Z</time>
      </trkpt>
      <trkpt lat="50.39964" lon="2.71965">
        <ele>165</ele>
        <time>2015-09-25T14:35:15Z</time>
      </trkpt>
      <trkpt lat="50.39965" lon="2.71963">
        <ele>165</ele>
        <time>2015-09-25T14:35:17Z</time>
      </trkpt>
      <trkpt lat="50.39981" lon="2.71953">
        <ele>165.96</ele>
        <time>2015-09-25T14:35:33Z</time>
      </trkpt>
      <trkpt lat="50.3999" lon="2.71946">
        <ele>166.45</ele>
        <time>2015-09-25T14:35:43Z</time>
      </trkpt>
      <trkpt lat="50.39992" lon="2.71944">
        <ele>166.45</ele>
        <time>2015-09-25T14:35:45Z</time>
      </trkpt>
      <trkpt lat="50.39992" lon="2.71925">
        <ele>166.93</ele>
        <time>2015-09-25T14:35:56Z</time>
      </trkpt>
      <trkpt lat="50.39988" lon="2.71893">
        <ele>166.93</ele>
        <time>2015-09-25T14:36:14Z</time>
      </trkpt>
      <trkpt lat="50.39986" lon="2.71891">
        <ele>167.41</ele>
        <time>2015-09-25T14:36:19Z</time>
      </trkpt>
      <trkpt lat="50.39982" lon="2.71848">
        <ele>167.41</ele>
        <time>2015-09-25T14:36:42Z</time>
      </trkpt>
      <trkpt lat="50.39977" lon="2.71815">
        <ele>167.41</ele>
        <time>2015-09-25T14:37:01Z</time>
      </trkpt>
      <trkpt lat="50.39969" lon="2.71785">
        <ele>166.45</ele>
        <time>2015-09-25T14:37:19Z</time>
      </trkpt>
      <trkpt lat="50.39966" lon="2.71752">
        <ele>165</ele>
        <time>2015-09-25T14:37:38Z</time>
      </trkpt>
      <trkpt lat="50.39959" lon="2.71756">
        <ele>162.6</ele>
        <time>2015-09-25T14:37:51Z</time>
      </trkpt>
      <trkpt lat="50.39954" lon="2.71761">
        <ele>161.64</ele>
        <time>2015-09-25T14:38:07Z</time>
      </trkpt>
      <trkpt lat="50.39952" lon="2.71762">
        <ele>160.68</ele>
        <time>2015-09-25T14:38:21Z</time>
      </trkpt>
      <trkpt lat="50.39952" lon="2.71763">
        <ele>160.68</ele>
        <time>2015-09-25T14:38:43Z</time>
      </trkpt>
      <trkpt lat="50.39953" lon="2.71764">
        <ele>160.68</ele>
        <time>2015-09-25T14:38:56Z</time>
      </trkpt>
      <trkpt lat="50.39952" lon="2.71767">
        <ele>160.68</ele>
        <time>2015-09-25T14:39:12Z</time>
      </trkpt>
      <trkpt lat="50.3995" lon="2.71764">
        <ele>160.68</ele>
        <time>2015-09-25T14:39:25Z</time>
      </trkpt>
      <trkpt lat="50.39949" lon="2.71758">
        <ele>160.68</ele>
        <time>2015-09-25T14:39:45Z</time>
      </trkpt>
      <trkpt lat="50.39948" lon="2.71757">
        <ele>161.64</ele>
        <time>2015-09-25T14:39:57Z</time>
      </trkpt>
      <trkpt lat="50.39948" lon="2.71756">
        <ele>160.2</ele>
        <time>2015-09-25T14:40:04Z</time>
      </trkpt>
      <trkpt lat="50.39947" lon="2.71759">
        <ele>160.2</ele>
        <time>2015-09-25T14:40:26Z</time>
      </trkpt>
      <trkpt lat="50.3995" lon="2.7176">
        <ele>160.2</ele>
        <time>2015-09-25T14:40:59Z</time>
      </trkpt>
      <trkpt lat="50.3995" lon="2.71761">
        <ele>160.2</ele>
        <time>2015-09-25T14:41:20Z</time>
      </trkpt>
      <trkpt lat="50.3995" lon="2.71764">
        <ele>160.2</ele>
        <time>2015-09-25T14:41:36Z</time>
      </trkpt>
      <trkpt lat="50.39954" lon="2.71761">
        <ele>161.64</ele>
        <time>2015-09-25T14:41:40Z</time>
      </trkpt>
      <trkpt lat="50.39961" lon="2.71753">
        <ele>164.04</ele>
        <time>2015-09-25T14:41:50Z</time>
      </trkpt>
      <trkpt lat="50.39961" lon="2.71747">
        <ele>164.52</ele>
        <time>2015-09-25T14:41:53Z</time>
      </trkpt>
      <trkpt lat="50.39963" lon="2.7174">
        <ele>165</ele>
        <time>2015-09-25T14:41:57Z</time>
      </trkpt>
      <trkpt lat="50.3998" lon="2.71723">
        <ele>166.93</ele>
        <time>2015-09-25T14:42:12Z</time>
      </trkpt>
      <trkpt lat="50.39996" lon="2.7172">
        <ele>167.89</ele>
        <time>2015-09-25T14:42:27Z</time>
      </trkpt>
      <trkpt lat="50.39996" lon="2.71718">
        <ele>168.37</ele>
        <time>2015-09-25T14:42:39Z</time>
      </trkpt>
      <trkpt lat="50.39994" lon="2.71714">
        <ele>168.37</ele>
        <time>2015-09-25T14:42:42Z</time>
      </trkpt>
      <trkpt lat="50.39993" lon="2.71711">
        <ele>166.93</ele>
        <time>2015-09-25T14:42:44Z</time>
      </trkpt>
      <trkpt lat="50.39979" lon="2.71685">
        <ele>166.93</ele>
        <time>2015-09-25T14:42:59Z</time>
      </trkpt>
      <trkpt lat="50.39973" lon="2.71657">
        <ele>166.93</ele>
        <time>2015-09-25T14:43:12Z</time>
      </trkpt>
      <trkpt lat="50.39966" lon="2.71618">
        <ele>166.93</ele>
        <time>2015-09-25T14:43:31Z</time>
      </trkpt>
      <trkpt lat="50.39961" lon="2.71573">
        <ele>168.37</ele>
        <time>2015-09-25T14:43:52Z</time>
      </trkpt>
      <trkpt lat="50.39965" lon="2.71527">
        <ele>168.37</ele>
        <time>2015-09-25T14:44:14Z</time>
      </trkpt>
      <trkpt lat="50.39966" lon="2.71487">
        <ele>168.37</ele>
        <time>2015-09-25T14:44:33Z</time>
      </trkpt>
      <trkpt lat="50.39965" lon="2.71443">
        <ele>168.37</ele>
        <time>2015-09-25T14:44:53Z</time>
      </trkpt>
      <trkpt lat="50.39972" lon="2.71408">
        <ele>168.37</ele>
        <time>2015-09-25T14:45:12Z</time>
      </trkpt>
      <trkpt lat="50.39993" lon="2.71398">
        <ele>168.85</ele>
        <time>2015-09-25T14:45:29Z</time>
      </trkpt>
      <trkpt lat="50.4" lon="2.71398">
        <ele>169.33</ele>
        <time>2015-09-25T14:45:34Z</time>
      </trkpt>
      <trkpt lat="50.40019" lon="2.71377">
        <ele>170.29</ele>
        <time>2015-09-25T14:45:52Z</time>
      </trkpt>
      <trkpt lat="50.4004" lon="2.7138">
        <ele>170.77</ele>
        <time>2015-09-25T14:46:08Z</time>
      </trkpt>
      <trkpt lat="50.40061" lon="2.71379">
        <ele>171.25</ele>
        <time>2015-09-25T14:46:24Z</time>
      </trkpt>
      <trkpt lat="50.40087" lon="2.7138">
        <ele>171.73</ele>
        <time>2015-09-25T14:46:44Z</time>
      </trkpt>
      <trkpt lat="50.40105" lon="2.71381">
        <ele>172.21</ele>
        <time>2015-09-25T14:46:59Z</time>
      </trkpt>
      <trkpt lat="50.40126" lon="2.71385">
        <ele>172.69</ele>
        <time>2015-09-25T14:47:13Z</time>
      </trkpt>
      <trkpt lat="50.40133" lon="2.71404">
        <ele>172.69</ele>
        <time>2015-09-25T14:47:31Z</time>
      </trkpt>
      <trkpt lat="50.40135" lon="2.71406">
        <ele>172.69</ele>
        <time>2015-09-25T14:47:46Z</time>
      </trkpt>
      <trkpt lat="50.40136" lon="2.71406">
        <ele>171.73</ele>
        <time>2015-09-25T14:48:00Z</time>
      </trkpt>
      <trkpt lat="50.40136" lon="2.71405">
        <ele>171.25</ele>
        <time>2015-09-25T14:48:14Z</time>
      </trkpt>
    </trkseg>
  </trk>
</gpx>